Time;durP1;ratioP1;P1;durP2;ratioP2;P2;SDS_P1;SDS_P2;PMS_P1;PMS_P2;Temp;Humidity;BMP_temperature;BMP_pressure;BME280_temperature;BME280_humidity;BME280_pressure;Samples;Min_cycle;Max_cycle;Signal;HPM_P1;HPM_P2
2021/09/03 00:00:06;752270.00;2.51;1298.00;44905.00;0.15;78.37;;;;;19.20;1.00;;;;;;2575085;55;982;-90
2021/09/03 00:02:33;537243.00;1.79;925.97;113513.00;0.38;196.89;;;;;19.10;1.00;;;;;;2586414;55;1271;-90
2021/09/03 00:05:00;485845.00;1.62;837.46;0.00;0.00;0.62;;;;;18.70;1.00;;;;;;2588654;55;1564;-88
2021/09/03 00:07:27;366178.00;1.22;631.67;6439.00;0.02;11.78;;;;;19.10;1.00;;;;;;2588597;55;1539;-92
2021/09/03 00:09:57;884600.00;2.95;1529.09;18754.00;0.06;33.11;;;;;19.40;1.00;;;;;;2588736;55;942;-90
2021/09/03 00:12:24;1120463.00;3.73;1947.06;42175.00;0.14;73.65;;;;;19.50;1.00;;;;;;2586436;55;1551;-89
2021/09/03 00:14:51;1101964.00;3.67;1913.94;14016.00;0.05;24.91;;;;;19.60;1.00;;;;;;2588635;55;1057;-90
2021/09/03 00:17:19;910697.00;3.04;1574.92;75265.00;0.25;130.86;;;;;19.50;1.00;;;;;;2588611;55;1959;-90
2021/09/03 00:19:46;859410.00;2.86;1484.94;0.00;0.00;0.62;;;;;18.90;1.00;;;;;;2583898;55;1104;-92
2021/09/03 00:22:13;816038.00;2.72;1409.11;26783.00;0.09;47.01;;;;;19.30;1.00;;;;;;2588697;55;1272;-91
2021/09/03 00:24:40;856257.00;2.85;1479.42;26955.00;0.09;47.31;;;;;19.60;1.00;;;;;;2577733;55;1117;-90
2021/09/03 00:27:07;861984.00;2.87;1489.45;26453.00;0.09;46.44;;;;;19.60;1.00;;;;;;2575472;55;1538;-90
2021/09/03 00:29:34;1372407.00;4.57;2405.25;117793.00;0.39;204.28;;;;;19.60;1.00;;;;;;2567262;56;996;-91
2021/09/03 00:32:01;625284.00;2.08;1077.90;0.00;0.00;0.62;;;;;19.40;1.00;;;;;;2567425;56;1299;-90
2021/09/03 00:34:30;893366.00;2.98;1544.47;28175.00;0.09;49.42;;;;;19.30;1.00;;;;;;2562303;56;996;-89
2021/09/03 00:37:00;843784.00;2.81;1457.59;112837.00;0.38;195.73;;;;;19.50;1.00;;;;;;2562293;56;1902;-90
2021/09/03 00:39:27;1116283.00;3.72;1939.57;56195.00;0.19;97.90;;;;;19.40;1.00;;;;;;2560256;56;1018;-89
2021/09/03 00:41:54;1041091.00;3.47;1805.39;62165.00;0.21;108.22;;;;;19.00;1.00;;;;;;2562943;56;1259;-90
2021/09/03 00:44:21;1219293.00;4.06;2125.14;51195.00;0.17;89.25;;;;;18.80;1.00;;;;;;2565234;56;1099;-90
2021/09/03 00:46:48;1180527.00;3.94;2055.05;102562.00;0.34;177.99;;;;;18.80;1.00;;;;;;2568857;55;1649;-90
2021/09/03 00:49:15;985457.00;3.28;1706.73;95560.00;0.32;165.91;;;;;18.60;1.00;;;;;;2575463;55;1143;-89
2021/09/03 00:51:45;508298.00;1.69;876.11;84067.00;0.28;146.06;;;;;18.90;1.00;;;;;;2579104;55;1605;-90
2021/09/03 00:54:15;522320.00;1.74;900.26;75263.00;0.25;130.85;;;;;19.00;1.00;;;;;;2588803;55;1085;-89
2021/09/03 00:56:42;472717.00;1.58;814.86;83851.00;0.28;145.69;;;;;19.10;1.00;;;;;;2588680;55;1943;-88
2021/09/03 00:59:35;346853.00;1.16;598.45;68674.00;0.23;119.47;;;;;19.20;1.00;;;;;;2586495;55;1030;-90
2021/09/03 01:02:06;1434354.00;4.78;2520.19;107291.00;0.36;186.16;;;;;19.00;1.00;;;;;;2588693;55;1303;-90
2021/09/03 01:04:35;1080094.00;3.60;1874.86;144667.00;0.48;250.62;;;;;19.00;1.00;;;;;;2588873;55;992;-89
2021/09/03 01:07:04;783258.00;2.61;1351.94;24466.00;0.08;43.00;;;;;18.50;1.00;;;;;;2588829;55;1700;-90
2021/09/03 01:09:34;1040662.00;3.47;1804.62;75783.00;0.25;131.75;;;;;18.60;1.00;;;;;;2586840;55;1070;-89
2021/09/03 01:12:01;756228.00;2.52;1304.89;12273.00;0.04;21.89;;;;;18.40;1.00;;;;;;2586705;55;1296;-90
2021/09/03 01:14:27;815602.00;2.72;1408.35;33018.00;0.11;57.81;;;;;18.50;1.00;;;;;;2588794;55;1527;-90
2021/09/03 01:16:55;967162.00;3.22;1674.40;104910.00;0.35;182.05;;;;;18.80;1.00;;;;;;2588776;55;1956;-89
2021/09/03 01:19:22;1445463.00;4.82;2540.91;219376.00;0.73;379.27;;;;;18.70;1.00;;;;;;2588782;55;1714;-90
2021/09/03 01:21:51;1067005.00;3.56;1851.52;162521.00;0.54;281.38;;;;;18.60;1.00;;;;;;2588859;55;1367;-90
2021/09/03 01:24:19;1370473.00;4.57;2401.67;141040.00;0.47;244.36;;;;;18.00;1.00;;;;;;2586669;55;1009;-90
2021/09/03 01:26:49;928450.00;3.09;1606.14;73499.00;0.24;127.81;;;;;17.90;1.00;;;;;;2586716;55;1038;-90
2021/09/03 01:29:16;816808.00;2.72;1410.45;91202.00;0.30;158.38;;;;;18.10;1.00;;;;;;2588906;55;1544;-90
2021/09/03 01:31:43;1103894.00;3.68;1917.39;126068.00;0.42;218.55;;;;;18.40;1.00;;;;;;2588882;55;1354;-90
2021/09/03 01:34:10;1124571.00;3.75;1954.42;105283.00;0.35;182.69;;;;;18.30;1.00;;;;;;2588885;55;1097;-89
2021/09/03 01:36:38;918458.00;3.06;1588.56;66599.00;0.22;115.88;;;;;18.40;1.00;;;;;;2586578;55;1122;-90
2021/09/03 01:39:06;1015549.00;3.39;1760.03;97534.00;0.33;169.32;;;;;18.60;1.00;;;;;;2586601;55;1961;-89
2021/09/03 01:41:33;1513261.00;5.04;2668.10;278407.00;0.93;480.80;;;;;18.90;1.00;;;;;;2588810;55;1551;-90
2021/09/03 01:44:00;665586.00;2.22;1147.61;80661.00;0.27;140.18;;;;;18.70;1.00;;;;;;2588821;55;1038;-90
2021/09/03 01:46:27;798794.00;2.66;1379.02;110501.00;0.37;191.69;;;;;18.40;1.00;;;;;;2586658;55;1119;-89
2021/09/03 01:48:56;989721.00;3.30;1714.28;142362.00;0.47;246.64;;;;;18.40;1.00;;;;;;2588793;55;1806;-91
2021/09/03 02:28:41;954035.00;3.18;1651.23;95162.00;0.32;165.22;;;;;19.40;1.00;;;;;;2539594;40;3535;31
2021/09/03 02:51:08;870070.00;2.90;1503.61;19950.00;0.07;35.18;;;;;19.60;1.00;;;;;;2576743;56;1258;-92
2021/09/03 05:47:47;202278.00;0.67;349.84;0.00;0.00;0.62;;;;;23.80;1.00;;;;;;2579582;55;970;-90
2021/09/03 05:50:17;421691.00;1.41;727.10;0.00;0.00;0.62;;;;;24.40;1.00;;;;;;2572444;55;892;-90
2021/09/03 05:52:44;401560.00;1.34;692.49;56061.00;0.19;97.67;;;;;24.40;1.00;;;;;;2571605;55;1395;-92
2021/09/03 05:55:11;393635.00;1.31;678.86;0.00;0.00;0.62;;;;;24.50;1.00;;;;;;2565001;56;1025;-91
2021/09/03 05:57:41;470627.00;1.57;811.27;5238.00;0.02;9.70;;;;;24.10;1.00;;;;;;2567290;56;1951;-92
2021/09/03 06:00:10;348114.00;1.16;600.62;0.00;0.00;0.62;;;;;24.20;1.00;;;;;;2565119;56;1545;-92
2021/09/03 06:02:37;368985.00;1.23;636.49;25256.00;0.08;44.37;;;;;24.40;1.00;;;;;;2551922;56;1347;-90
2021/09/03 06:05:06;137567.00;0.46;238.38;0.00;0.00;0.62;;;;;24.50;1.00;;;;;;2551886;56;953;-90
2021/09/03 06:07:33;342190.00;1.14;590.44;0.00;0.00;0.62;;;;;25.00;1.00;;;;;;2552848;56;963;-91
2021/09/03 06:10:00;199392.00;0.66;344.88;0.00;0.00;0.62;;;;;25.40;1.00;;;;;;2546864;56;925;-92
2021/09/03 06:12:27;579212.00;1.93;998.34;110085.00;0.37;190.98;;;;;26.00;1.00;;;;;;2542648;56;1331;-91
2021/09/03 06:14:54;487910.00;1.63;841.01;3188.00;0.01;6.15;;;;;26.50;1.00;;;;;;2536537;56;921;-92
2021/09/03 06:17:21;310746.00;1.04;536.39;0.00;0.00;0.62;;;;;26.40;1.00;;;;;;2536881;56;1972;-91
2021/09/03 06:19:48;391966.00;1.31;675.99;0.00;0.00;0.62;;;;;26.50;1.00;;;;;;2536965;56;956;-91
2021/09/03 06:22:17;390000.00;1.30;672.61;18435.00;0.06;32.56;;;;;26.20;1.00;;;;;;2538012;56;1358;-91
2021/09/03 06:24:44;367579.00;1.23;634.08;69878.00;0.23;121.55;;;;;25.80;1.00;;;;;;2541791;56;1021;-91
2021/09/03 06:27:12;317034.00;1.06;547.20;21770.00;0.07;38.34;;;;;26.40;1.00;;;;;;2533887;56;965;-92
2021/09/03 06:29:41;280235.00;0.93;483.94;10453.00;0.03;18.73;;;;;26.60;1.00;;;;;;2547076;56;998;-91
2021/09/03 06:32:11;110289.00;0.37;191.33;0.00;0.00;0.62;;;;;27.50;1.00;;;;;;2548223;56;1419;-91
2021/09/03 06:34:40;356788.00;1.19;615.53;57.00;0.00;0.72;;;;;28.40;1.00;;;;;;2544410;56;916;-91
2021/09/03 06:37:07;151024.00;0.50;261.57;0.00;0.00;0.62;;;;;28.30;1.00;;;;;;2548335;56;955;-90
2021/09/03 06:39:36;86357.00;0.29;150.02;0.00;0.00;0.62;;;;;28.30;1.00;;;;;;2541755;56;1920;-91
2021/09/03 06:42:05;179533.00;0.60;310.69;0.00;0.00;0.62;;;;;28.10;1.00;;;;;;2544334;56;1286;-91
2021/09/03 06:44:32;263380.00;0.88;454.96;0.00;0.00;0.62;;;;;28.70;1.00;;;;;;2548459;56;956;-93
2021/09/03 06:46:59;96393.00;0.32;167.35;0.00;0.00;0.62;;;;;28.40;1.00;;;;;;2557084;56;989;-93
2021/09/03 06:49:27;251029.00;0.84;433.72;0.00;0.00;0.62;;;;;28.00;1.00;;;;;;2557153;56;984;-91
2021/09/03 06:51:54;228760.00;0.76;395.42;0.00;0.00;0.62;;;;;27.70;1.00;;;;;;2556990;56;1292;-91
2021/09/03 06:54:21;612125.00;2.04;1055.16;141579.00;0.47;245.29;;;;;27.70;1.00;;;;;;2561393;56;931;-92
2021/09/03 06:56:50;171489.00;0.57;296.83;0.00;0.00;0.62;;;;;28.10;1.00;;;;;;2557752;56;916;-92
2021/09/03 07:01:48;165962.00;0.55;287.31;34618.00;0.12;60.58;;;;;28.90;1.00;;;;;;2579318;55;1326;-91
2021/09/03 10:43:51;589959.00;1.97;1016.89;0.00;0.00;0.62;;;;;23.20;1.00;;;;;;2581916;55;415;-92
2021/09/03 11:55:55;154698.00;0.52;267.90;0.00;0.00;0.62;;;;;25.20;1.00;;;;;;2585026;55;798;-91
2021/09/03 11:58:24;477616.00;1.59;823.29;27397.00;0.09;48.08;;;;;25.10;1.00;;;;;;2577402;55;1957;-90
2021/09/03 12:00:57;329520.00;1.10;568.66;0.00;0.00;0.62;;;;;25.00;1.00;;;;;;2567204;56;1264;-90
2021/09/03 12:03:34;463349.00;1.54;798.75;0.00;0.00;0.62;;;;;24.90;1.00;;;;;;2561771;56;932;-92
2021/09/03 12:11:10;71687.00;0.24;124.68;0.00;0.00;0.62;;;;;25.90;1.00;;;;;;2585882;55;1323;-90
2021/09/03 12:13:42;335384.00;1.12;578.74;0.00;0.00;0.62;;;;;25.90;1.00;;;;;;2583397;55;870;-92
2021/09/03 12:16:12;287137.00;0.96;495.81;0.00;0.00;0.62;;;;;26.00;1.00;;;;;;2574097;55;965;-90
2021/09/03 12:18:42;162143.00;0.54;280.73;0.00;0.00;0.62;;;;;25.60;1.00;;;;;;2572094;55;1961;-92
2021/09/03 12:21:19;298303.00;0.99;515.00;0.00;0.00;0.62;;;;;26.10;1.00;;;;;;2562048;56;1303;-90
2021/09/03 12:23:48;140174.00;0.47;242.87;0.00;0.00;0.62;;;;;26.00;1.00;;;;;;2553519;56;920;-91
2021/09/03 12:36:27;78959.00;0.26;137.24;0.00;0.00;0.62;;;;;26.10;1.00;;;;;;2586240;55;785;-91
2021/09/03 12:41:28;140153.00;0.47;242.83;0.00;0.00;0.62;;;;;26.20;1.00;;;;;;2585024;55;1286;-90
2021/09/03 12:51:39;414969.00;1.38;715.54;0.00;0.00;0.62;;;;;26.30;1.00;;;;;;2584869;55;1173;-92
2021/09/03 13:19:18;260975.00;0.87;450.83;7136.00;0.02;12.99;;;;;26.70;1.00;;;;;;2581029;55;1968;-91
2021/09/03 13:59:17;323980.00;1.08;559.14;51047.00;0.17;89.00;;;;;27.70;1.00;;;;;;2581796;55;1897;-94
2021/09/03 14:06:41;102183.00;0.34;177.34;0.00;0.00;0.62;;;;;27.60;1.00;;;;;;2581856;55;406;-93
2021/09/03 14:39:27;453400.00;1.51;781.63;64928.00;0.22;113.00;;;;;26.90;1.00;;;;;;2575898;55;1922;-91
2021/09/03 14:41:58;681600.00;2.27;1175.35;91934.00;0.31;159.65;;;;;27.10;1.00;;;;;;2556553;40;3850;31
2021/09/03 14:47:12;340151.00;1.13;586.93;0.00;0.00;0.62;;;;;26.90;1.00;;;;;;2576575;56;1045;-89
2021/09/03 14:49:39;225002.00;0.75;388.95;0.00;0.00;0.62;;;;;26.90;1.00;;;;;;2575732;55;1212;-90
